Time;durP1;ratioP1;P1;durP2;ratioP2;P2;SDS_P1;SDS_P2;PMS_P1;PMS_P2;Temp;Humidity;BMP_temperature;BMP_pressure;BME280_temperature;BME280_humidity;BME280_pressure;Samples;Min_cycle;Max_cycle;Signal;HPM_P1;HPM_P2
2021/08/27 00:01:12;;;;;;;24.83;15.48;;;;;;;;;;5016055;28;20030;-47
2021/08/27 00:03:38;;;;;;;27.38;18.40;;;;;;;;;;5016038;28;20018;-46
2021/08/27 00:06:04;;;;;;;24.90;16.45;;;;;;;;;;5016177;28;20382;-48
2021/08/27 00:08:30;;;;;;;37.92;21.95;;;;;;;;;;5015889;28;20053;-45
2021/08/27 00:10:57;;;;;;;40.85;24.45;;;;;;;;;;5015813;28;20510;-45
2021/08/27 00:13:23;;;;;;;24.35;15.52;;;;;;;;;;5015938;28;20026;-45
2021/08/27 00:15:49;;;;;;;22.02;15.45;;;;;;;;;;5015940;28;20022;-45
2021/08/27 00:18:15;;;;;;;16.23;11.88;;;;;;;;;;5016066;28;20026;-46
2021/08/27 00:20:43;;;;;;;16.17;12.20;;;;;;;;;;5016017;28;20030;-45
2021/08/27 00:23:10;;;;;;;16.13;11.70;;;;;;;;;;5015730;28;20029;-46
2021/08/27 00:25:36;;;;;;;16.48;12.02;;;;;;;;;;5015572;28;20117;-49
2021/08/27 00:28:05;;;;;;;32.83;21.75;;;;;;;;;;5015807;28;20022;-45
2021/08/27 00:30:31;;;;;;;27.67;18.80;;;;;;;;;;5015722;28;20036;-47
2021/08/27 00:32:57;;;;;;;26.30;16.92;;;;;;;;;;5015709;28;20033;-45
2021/08/27 00:35:23;;;;;;;51.90;33.35;;;;;;;;;;5015636;28;20139;-45
2021/08/27 00:37:49;;;;;;;46.17;31.42;;;;;;;;;;5015459;28;20417;-45
2021/08/27 00:40:15;;;;;;;23.38;17.20;;;;;;;;;;5015276;28;20042;-45
2021/08/27 00:42:42;;;;;;;21.75;16.13;;;;;;;;;;5015434;28;20108;-48
2021/08/27 00:45:08;;;;;;;17.90;12.95;;;;;;;;;;5015368;28;20053;-45
2021/08/27 00:47:37;;;;;;;22.17;13.82;;;;;;;;;;5015274;28;20033;-45
2021/08/27 00:50:04;;;;;;;17.38;12.45;;;;;;;;;;5015256;28;20025;-44
2021/08/27 00:52:34;;;;;;;19.42;12.23;;;;;;;;;;5015171;28;20033;-44
2021/08/27 00:55:00;;;;;;;16.23;12.47;;;;;;;;;;5015265;28;20070;-44
2021/08/27 00:57:26;;;;;;;18.38;11.40;;;;;;;;;;5015225;28;20109;-45
2021/08/27 00:59:53;;;;;;;17.27;10.45;;;;;;;;;;5014988;28;20474;-44
2021/08/27 01:02:19;;;;;;;13.13;9.27;;;;;;;;;;5014935;28;20034;-44
2021/08/27 01:04:47;;;;;;;11.85;9.38;;;;;;;;;;5015117;28;20478;-44
2021/08/27 01:07:16;;;;;;;13.95;9.13;;;;;;;;;;5014937;28;20033;-44
2021/08/27 01:09:50;;;;;;;10.70;8.05;;;;;;;;;;5014239;28;20069;-45
2021/08/27 01:12:21;;;;;;;11.93;8.40;;;;;;;;;;5013870;28;20022;-46
2021/08/27 01:14:51;;;;;;;11.68;7.90;;;;;;;;;;5013878;28;20092;-44
2021/08/27 01:17:20;;;;;;;12.70;7.57;;;;;;;;;;5013986;28;20030;-45
2021/08/27 01:20:06;;;;;;;14.18;7.28;;;;;;;;;;5013913;28;20459;-45
2021/08/27 01:22:35;;;;;;;13.48;7.40;;;;;;;;;;5013827;28;20036;-45
2021/08/27 01:25:01;;;;;;;12.60;6.63;;;;;;;;;;5013890;28;20419;-45
2021/08/27 01:27:27;;;;;;;8.20;5.13;;;;;;;;;;5013661;28;20026;-45
2021/08/27 01:29:53;;;;;;;10.90;5.43;;;;;;;;;;5013900;28;20026;-45
2021/08/27 01:32:30;;;;;;;8.48;4.50;;;;;;;;;;5013678;28;20025;-46
2021/08/27 01:34:56;;;;;;;9.68;5.28;;;;;;;;;;5012158;28;20394;-46
2021/08/27 01:37:23;;;;;;;10.48;5.00;;;;;;;;;;5012886;28;20026;-45
2021/08/27 01:39:55;;;;;;;8.40;5.32;;;;;;;;;;5013236;28;20030;-45
2021/08/27 01:42:23;;;;;;;8.07;4.38;;;;;;;;;;5013705;28;20478;-45
2021/08/27 01:44:53;;;;;;;6.57;4.05;;;;;;;;;;5013402;28;20029;-44
2021/08/27 01:47:22;;;;;;;8.80;4.43;;;;;;;;;;5013640;28;20029;-45
2021/08/27 01:49:50;;;;;;;5.93;3.97;;;;;;;;;;5013456;28;20022;-47
2021/08/27 01:52:16;;;;;;;9.50;3.78;;;;;;;;;;5013347;28;20033;-45
2021/08/27 01:54:43;;;;;;;10.13;4.38;;;;;;;;;;5013415;28;20470;-44
2021/08/27 01:57:10;;;;;;;8.48;4.38;;;;;;;;;;5013311;28;20050;-44
2021/08/27 01:59:38;;;;;;;10.38;4.40;;;;;;;;;;5013341;28;20025;-44
2021/08/27 02:02:05;;;;;;;13.48;4.65;;;;;;;;;;5013241;28;20026;-44
2021/08/27 02:04:34;;;;;;;8.95;4.15;;;;;;;;;;5013270;28;20022;-45
2021/08/27 02:07:00;;;;;;;6.78;4.60;;;;;;;;;;5013057;28;20022;-45
2021/08/27 02:09:29;;;;;;;10.35;4.65;;;;;;;;;;4971258;28;1206385;-45
2021/08/27 02:11:55;;;;;;;6.53;4.00;;;;;;;;;;5012831;28;20038;-44
2021/08/27 02:14:22;;;;;;;7.63;4.15;;;;;;;;;;5014124;28;20036;-45
2021/08/27 02:16:48;;;;;;;8.68;4.10;;;;;;;;;;5013985;28;20397;-45
2021/08/27 02:19:14;;;;;;;8.20;3.95;;;;;;;;;;5013779;28;20022;-45
2021/08/27 02:21:43;;;;;;;9.60;5.07;;;;;;;;;;5013778;28;20069;-45
2021/08/27 02:24:19;;;;;;;7.57;4.22;;;;;;;;;;5013566;28;20024;-45
2021/08/27 02:26:46;;;;;;;10.88;4.50;;;;;;;;;;5013841;28;20030;-45
2021/08/27 02:29:14;;;;;;;7.43;4.45;;;;;;;;;;5013976;28;20033;-46
2021/08/27 02:31:44;;;;;;;7.65;4.82;;;;;;;;;;5013659;28;20072;-45
2021/08/27 02:34:11;;;;;;;11.32;4.28;;;;;;;;;;5013712;28;20021;-47
2021/08/27 02:36:37;;;;;;;6.30;4.05;;;;;;;;;;5013710;28;20022;-43
2021/08/27 02:39:06;;;;;;;7.38;4.15;;;;;;;;;;5013375;28;20108;-45
2021/08/27 02:41:32;;;;;;;6.47;4.10;;;;;;;;;;5013651;28;20060;-45
2021/08/27 02:43:58;;;;;;;8.02;3.92;;;;;;;;;;5013364;28;20030;-46
2021/08/27 02:46:24;;;;;;;9.63;4.47;;;;;;;;;;5013409;28;20069;-45
2021/08/27 02:48:50;;;;;;;8.80;4.22;;;;;;;;;;5012724;28;20098;-45
2021/08/27 02:51:19;;;;;;;10.93;4.45;;;;;;;;;;5013254;28;20063;-45
2021/08/27 02:53:46;;;;;;;12.15;4.78;;;;;;;;;;5013288;28;20509;-45
2021/08/27 02:56:15;;;;;;;8.93;4.32;;;;;;;;;;5013457;28;20073;-45
2021/08/27 02:58:47;;;;;;;11.02;4.50;;;;;;;;;;5013424;28;20018;-44
2021/08/27 03:01:19;;;;;;;7.70;4.55;;;;;;;;;;5013262;28;20042;-45
2021/08/27 03:03:54;;;;;;;7.35;4.03;;;;;;;;;;5013570;28;20370;-45
2021/08/27 03:06:23;;;;;;;6.50;3.60;;;;;;;;;;5013286;28;20030;-44
2021/08/27 03:08:58;;;;;;;6.93;4.50;;;;;;;;;;5012931;28;20029;-45
2021/08/27 03:11:27;;;;;;;12.43;4.35;;;;;;;;;;5013212;28;20153;-45
2021/08/27 03:13:59;;;;;;;5.78;3.90;;;;;;;;;;5013153;28;20057;-45
2021/08/27 03:16:26;;;;;;;8.48;4.00;;;;;;;;;;5013128;28;20104;-45
2021/08/27 03:19:07;;;;;;;7.78;3.95;;;;;;;;;;5013340;28;20032;-45
2021/08/27 03:21:37;;;;;;;7.53;4.28;;;;;;;;;;5013063;28;20040;-45
2021/08/27 03:24:23;;;;;;;10.00;4.30;;;;;;;;;;5013179;28;20018;-44
2021/08/27 03:26:53;;;;;;;7.60;4.07;;;;;;;;;;5013042;28;20104;-44
2021/08/27 03:29:20;;;;;;;12.80;4.43;;;;;;;;;;5012899;28;20036;-43
2021/08/27 03:31:47;;;;;;;8.38;4.55;;;;;;;;;;5012975;28;20554;-44
2021/08/27 03:34:13;;;;;;;10.75;3.53;;;;;;;;;;5012969;28;20026;-44
2021/08/27 03:36:42;;;;;;;6.50;4.10;;;;;;;;;;5011624;28;20026;-44
2021/08/27 03:39:08;;;;;;;6.97;4.07;;;;;;;;;;5012836;28;20498;-45
2021/08/27 03:41:35;;;;;;;8.82;4.70;;;;;;;;;;5012903;28;20038;-43
2021/08/27 03:44:04;;;;;;;5.85;3.55;;;;;;;;;;5012908;28;20033;-44
2021/08/27 03:46:31;;;;;;;7.03;4.43;;;;;;;;;;5013008;28;20525;-44
2021/08/27 03:48:57;;;;;;;5.78;3.83;;;;;;;;;;5013004;28;20072;-44
2021/08/27 03:51:24;;;;;;;11.05;4.55;;;;;;;;;;5011499;28;20077;-43
2021/08/27 03:53:50;;;;;;;8.98;4.45;;;;;;;;;;5012790;28;20029;-44
2021/08/27 03:56:19;;;;;;;13.00;4.60;;;;;;;;;;5012773;28;20053;-45
2021/08/27 03:58:46;;;;;;;12.93;5.20;;;;;;;;;;5012894;28;20037;-44
2021/08/27 04:01:12;;;;;;;11.77;4.88;;;;;;;;;;5014410;28;20045;-44
2021/08/27 04:03:40;;;;;;;28.95;6.15;;;;;;;;;;5016100;28;20057;-44
2021/08/27 04:06:07;;;;;;;22.48;6.60;;;;;;;;;;5016032;28;20061;-45
2021/08/27 04:08:38;;;;;;;11.40;5.20;;;;;;;;;;5016182;28;20022;-45
2021/08/27 04:11:04;;;;;;;14.13;5.17;;;;;;;;;;5015857;28;20066;-45
2021/08/27 04:13:30;;;;;;;11.50;5.60;;;;;;;;;;5015935;28;20084;-45
2021/08/27 04:15:57;;;;;;;8.60;4.75;;;;;;;;;;5016191;28;20030;-45
2021/08/27 04:18:23;;;;;;;13.10;5.43;;;;;;;;;;5016020;28;20022;-45
2021/08/27 04:20:49;;;;;;;7.88;4.80;;;;;;;;;;5016065;28;20069;-44
2021/08/27 04:23:15;;;;;;;9.90;4.78;;;;;;;;;;5015776;28;20438;-44
2021/08/27 04:25:41;;;;;;;10.95;5.97;;;;;;;;;;5015804;28;20034;-44
2021/08/27 04:28:08;;;;;;;9.75;5.30;;;;;;;;;;5015593;28;20018;-44
2021/08/27 04:30:34;;;;;;;20.25;4.97;;;;;;;;;;5015784;28;20478;-44
2021/08/27 04:33:01;;;;;;;10.02;4.43;;;;;;;;;;5015855;28;20034;-44
2021/08/27 04:35:27;;;;;;;14.60;4.97;;;;;;;;;;5015605;28;20386;-44
2021/08/27 04:37:54;;;;;;;11.40;5.03;;;;;;;;;;5015684;28;20383;-45
2021/08/27 04:40:20;;;;;;;9.43;5.03;;;;;;;;;;5015544;28;20057;-44
2021/08/27 04:42:46;;;;;;;9.13;4.38;;;;;;;;;;5015358;28;20050;-45
2021/08/27 04:45:12;;;;;;;7.60;4.18;;;;;;;;;;5015475;28;20030;-45
2021/08/27 04:47:41;;;;;;;8.88;5.45;;;;;;;;;;5015615;28;20482;-45
2021/08/27 04:50:08;;;;;;;9.98;4.82;;;;;;;;;;5015434;28;20029;-44
2021/08/27 04:52:36;;;;;;;7.72;4.30;;;;;;;;;;5015504;28;20025;-44
2021/08/27 04:55:02;;;;;;;20.33;8.38;;;;;;;;;;5015886;28;20022;-44
2021/08/27 04:57:30;;;;;;;11.77;6.75;;;;;;;;;;5015303;28;20025;-46
2021/08/27 04:59:58;;;;;;;24.02;12.90;;;;;;;;;;5015511;28;20084;-46
2021/08/27 05:02:24;;;;;;;29.38;17.33;;;;;;;;;;5015122;28;20057;-47
2021/08/27 05:04:50;;;;;;;26.65;14.90;;;;;;;;;;5015572;28;20480;-46
2021/08/27 05:07:16;;;;;;;30.30;15.48;;;;;;;;;;5015144;28;20030;-46
2021/08/27 05:09:43;;;;;;;19.20;10.55;;;;;;;;;;5014615;28;20046;-46
2021/08/27 05:12:09;;;;;;;17.98;7.85;;;;;;;;;;5013915;28;20451;-46
2021/08/27 05:14:35;;;;;;;16.00;7.82;;;;;;;;;;5015066;28;20382;-46
2021/08/27 05:17:01;;;;;;;8.00;4.57;;;;;;;;;;5015121;28;20032;-46
2021/08/27 05:19:27;;;;;;;9.40;5.43;;;;;;;;;;5014918;28;20022;-47
2021/08/27 05:21:54;;;;;;;24.80;12.50;;;;;;;;;;5015000;28;20045;-48
2021/08/27 05:24:20;;;;;;;21.17;11.77;;;;;;;;;;5014722;28;20478;-47
2021/08/27 05:26:46;;;;;;;23.73;12.70;;;;;;;;;;5014633;28;20535;-47
2021/08/27 05:29:12;;;;;;;34.78;15.00;;;;;;;;;;5014643;28;20033;-47
2021/08/27 05:31:38;;;;;;;35.47;16.58;;;;;;;;;;5014729;28;20470;-49
2021/08/27 05:34:06;;;;;;;31.40;15.32;;;;;;;;;;5014507;28;20033;-48
2021/08/27 05:36:33;;;;;;;14.80;6.55;;;;;;;;;;5014481;28;20033;-48
2021/08/27 05:38:59;;;;;;;24.40;11.65;;;;;;;;;;5014119;28;20033;-48
2021/08/27 05:41:25;;;;;;;17.70;8.85;;;;;;;;;;5014196;28;20045;-49
2021/08/27 05:43:51;;;;;;;24.08;11.60;;;;;;;;;;5014511;28;20090;-48
2021/08/27 05:46:18;;;;;;;34.35;17.05;;;;;;;;;;5014705;28;20069;-49
2021/08/27 05:48:44;;;;;;;11.05;5.97;;;;;;;;;;5014511;28;20018;-51
2021/08/27 05:51:10;;;;;;;17.38;7.97;;;;;;;;;;5014352;28;20382;-49
2021/08/27 05:53:36;;;;;;;16.90;8.73;;;;;;;;;;5014182;28;20029;-48
2021/08/27 05:56:02;;;;;;;18.27;8.30;;;;;;;;;;5014117;28;20045;-49
2021/08/27 05:58:28;;;;;;;20.60;10.05;;;;;;;;;;5014095;28;20018;-48
2021/08/27 06:00:56;;;;;;;23.77;12.85;;;;;;;;;;5014106;28;20026;-48
2021/08/27 06:03:22;;;;;;;28.02;13.88;;;;;;;;;;5013926;28;20037;-48
2021/08/27 06:05:48;;;;;;;30.02;16.05;;;;;;;;;;5014204;28;20026;-48
2021/08/27 06:08:14;;;;;;;20.27;10.70;;;;;;;;;;5013857;28;20112;-48
2021/08/27 06:10:40;;;;;;;21.15;11.00;;;;;;;;;;5013833;28;20418;-48
2021/08/27 06:13:07;;;;;;;16.60;8.07;;;;;;;;;;5013750;28;20022;-48
2021/08/27 06:15:33;;;;;;;12.15;6.90;;;;;;;;;;5013939;28;20053;-48
2021/08/27 06:17:59;;;;;;;11.15;4.70;;;;;;;;;;5013769;28;20030;-46
2021/08/27 06:20:27;;;;;;;9.80;4.78;;;;;;;;;;5013998;28;20149;-47
2021/08/27 06:22:56;;;;;;;12.98;6.28;;;;;;;;;;5013977;28;20450;-47
2021/08/27 06:25:22;;;;;;;15.00;5.25;;;;;;;;;;5013690;28;20017;-46
2021/08/27 06:27:48;;;;;;;8.98;5.00;;;;;;;;;;5013552;28;20053;-47
2021/08/27 06:30:14;;;;;;;9.05;4.85;;;;;;;;;;5013701;28;20029;-47
2021/08/27 06:32:40;;;;;;;14.32;7.63;;;;;;;;;;5013742;28;20026;-47
2021/08/27 06:35:06;;;;;;;10.85;5.72;;;;;;;;;;5013586;28;20026;-48
2021/08/27 06:40:17;;;;;;;63.25;27.95;;;;;;;;;;5013190;28;20041;-46
2021/08/27 06:42:43;;;;;;;39.15;18.80;;;;;;;;;;5013622;28;20030;-46
2021/08/27 06:45:10;;;;;;;26.95;12.75;;;;;;;;;;5013639;28;20022;-47
2021/08/27 06:47:36;;;;;;;44.63;21.02;;;;;;;;;;5013606;28;20072;-47
2021/08/27 06:50:02;;;;;;;30.77;14.57;;;;;;;;;;5013450;28;20022;-48
2021/08/27 06:52:28;;;;;;;25.20;12.38;;;;;;;;;;5013433;28;20018;-48
2021/08/27 06:54:54;;;;;;;18.42;10.40;;;;;;;;;;5013464;28;20033;-48
2021/08/27 06:57:20;;;;;;;19.95;10.55;;;;;;;;;;5013653;28;20022;-49
2021/08/27 06:59:46;;;;;;;22.60;11.32;;;;;;;;;;5013466;28;20026;-48
2021/08/27 07:02:12;;;;;;;23.95;13.60;;;;;;;;;;5013196;28;20034;-50
2021/08/27 07:04:39;;;;;;;24.38;12.45;;;;;;;;;;5013372;28;20397;-50
2021/08/27 07:07:05;;;;;;;21.10;8.68;;;;;;;;;;5013499;28;20024;-49
2021/08/27 07:09:31;;;;;;;12.70;7.07;;;;;;;;;;5013038;28;20472;-50
2021/08/27 07:11:57;;;;;;;34.30;20.08;;;;;;;;;;5013273;28;20030;-49
2021/08/27 07:14:23;;;;;;;18.88;8.75;;;;;;;;;;5013513;28;20068;-49
2021/08/27 07:16:49;;;;;;;13.98;7.03;;;;;;;;;;5013665;28;20045;-50
2021/08/27 07:19:15;;;;;;;22.20;11.60;;;;;;;;;;5013491;28;20057;-49
2021/08/27 07:21:41;;;;;;;49.33;23.48;;;;;;;;;;5013336;28;20439;-50
2021/08/27 07:24:07;;;;;;;26.85;12.95;;;;;;;;;;5013278;28;20029;-48
2021/08/27 07:26:33;;;;;;;13.35;5.85;;;;;;;;;;5013226;28;20169;-49
2021/08/27 07:28:59;;;;;;;9.52;4.93;;;;;;;;;;5011859;28;20037;-49
2021/08/27 07:31:25;;;;;;;9.80;4.90;;;;;;;;;;5013409;28;20030;-49
2021/08/27 07:33:54;;;;;;;10.35;5.18;;;;;;;;;;5013194;28;20018;-50
2021/08/27 07:36:20;;;;;;;10.48;4.85;;;;;;;;;;5008390;28;20030;-50
2021/08/27 07:38:46;;;;;;;19.83;10.95;;;;;;;;;;4996510;28;20042;-50
2021/08/27 07:41:12;;;;;;;13.00;6.25;;;;;;;;;;4994004;28;20033;-50
2021/08/27 07:43:38;;;;;;;15.43;8.32;;;;;;;;;;4996652;28;20076;-49
2021/08/27 07:46:04;;;;;;;16.30;9.30;;;;;;;;;;4996569;28;20030;-50
2021/08/27 07:48:34;;;;;;;23.40;10.95;;;;;;;;;;4996580;28;20044;-50
2021/08/27 07:51:05;;;;;;;18.80;8.85;;;;;;;;;;4996457;28;20021;-49
2021/08/27 07:53:32;;;;;;;40.53;18.58;;;;;;;;;;4994212;28;20463;-49
2021/08/27 07:55:58;;;;;;;28.65;14.75;;;;;;;;;;4996312;28;20057;-48
2021/08/27 07:58:24;;;;;;;12.98;7.28;;;;;;;;;;4996600;28;20431;-49
2021/08/27 08:00:50;;;;;;;8.38;4.10;;;;;;;;;;4996224;28;20035;-48
2021/08/27 08:03:18;;;;;;;7.30;4.13;;;;;;;;;;4996279;28;20037;-49
2021/08/27 08:05:44;;;;;;;8.93;3.83;;;;;;;;;;4996300;28;20019;-49
2021/08/27 08:08:12;;;;;;;8.93;4.82;;;;;;;;;;4995987;28;20018;-49
2021/08/27 08:10:38;;;;;;;17.40;9.43;;;;;;;;;;4995815;28;20122;-49
2021/08/27 08:13:04;;;;;;;10.90;5.15;;;;;;;;;;4996132;28;20023;-49
2021/08/27 08:15:31;;;;;;;7.93;5.30;;;;;;;;;;4995936;28;20430;-49
2021/08/27 08:17:57;;;;;;;14.70;8.25;;;;;;;;;;4996084;28;20053;-49
2021/08/27 08:20:23;;;;;;;15.27;9.10;;;;;;;;;;4995948;28;20467;-48
2021/08/27 08:22:49;;;;;;;36.78;17.45;;;;;;;;;;4995756;28;20115;-48
2021/08/27 08:25:18;;;;;;;41.15;21.90;;;;;;;;;;4995757;28;20097;-47
2021/08/27 08:27:46;;;;;;;22.00;12.80;;;;;;;;;;4995683;28;20557;-50
2021/08/27 08:30:12;;;;;;;13.20;7.55;;;;;;;;;;4996040;28;20415;-49
2021/08/27 08:32:38;;;;;;;11.85;7.15;;;;;;;;;;4995786;28;20026;-49
2021/08/27 08:35:04;;;;;;;10.90;5.05;;;;;;;;;;4995706;28;20018;-50
2021/08/27 08:37:33;;;;;;;6.55;4.30;;;;;;;;;;4995796;28;20027;-49
2021/08/27 08:39:59;;;;;;;6.60;3.85;;;;;;;;;;4995760;28;20034;-49
2021/08/27 08:42:25;;;;;;;8.63;4.20;;;;;;;;;;4995408;28;20038;-50
2021/08/27 08:44:51;;;;;;;6.95;4.32;;;;;;;;;;4995452;28;20093;-50
2021/08/27 08:47:18;;;;;;;8.63;4.20;;;;;;;;;;4995789;28;20117;-49
2021/08/27 08:49:47;;;;;;;9.23;4.40;;;;;;;;;;4995619;28;20447;-49
2021/08/27 08:52:15;;;;;;;12.63;7.43;;;;;;;;;;4995299;28;20087;-49
2021/08/27 08:54:41;;;;;;;16.52;10.07;;;;;;;;;;4995365;28;20089;-49
2021/08/27 08:57:07;;;;;;;19.63;9.52;;;;;;;;;;4995901;28;20045;-49
2021/08/27 08:59:35;;;;;;;18.67;9.30;;;;;;;;;;4995954;28;20097;-49
2021/08/27 09:02:01;;;;;;;13.15;7.45;;;;;;;;;;4995769;28;20058;-48
2021/08/27 09:04:29;;;;;;;29.50;15.63;;;;;;;;;;4995769;28;20089;-49
2021/08/27 09:06:58;;;;;;;10.65;5.30;;;;;;;;;;4995483;28;20026;-49
2021/08/27 09:09:34;;;;;;;11.60;7.03;;;;;;;;;;4995164;28;20499;-49
2021/08/27 09:12:00;;;;;;;14.32;7.30;;;;;;;;;;4995537;28;20022;-48
2021/08/27 09:14:28;;;;;;;18.42;9.88;;;;;;;;;;4994815;28;20030;-50
2021/08/27 09:17:01;;;;;;;35.53;20.42;;;;;;;;;;4994891;28;20073;-50
2021/08/27 09:19:48;;;;;;;25.27;12.73;;;;;;;;;;4994810;28;20387;-49
2021/08/27 09:22:16;;;;;;;38.10;21.25;;;;;;;;;;4984461;28;20057;-51
2021/08/27 09:24:42;;;;;;;38.63;23.27;;;;;;;;;;4995278;28;20030;-48
2021/08/27 09:27:12;;;;;;;31.55;17.45;;;;;;;;;;4995352;28;20030;-49
2021/08/27 09:29:45;;;;;;;11.07;7.20;;;;;;;;;;4995217;28;20022;-52
2021/08/27 09:32:28;;;;;;;11.75;6.65;;;;;;;;;;4995124;28;20054;-49
2021/08/27 09:35:07;;;;;;;20.42;8.85;;;;;;;;;;4995160;28;20169;-50
2021/08/27 09:37:52;;;;;;;7.75;5.30;;;;;;;;;;4995232;28;20030;-47
2021/08/27 09:40:21;;;;;;;16.75;10.02;;;;;;;;;;4995395;28;20062;-48
2021/08/27 09:42:51;;;;;;;18.52;11.77;;;;;;;;;;4994838;28;20038;-49
2021/08/27 09:45:18;;;;;;;9.95;5.93;;;;;;;;;;4994672;28;20038;-48
2021/08/27 09:48:01;;;;;;;21.40;11.18;;;;;;;;;;4994806;28;20380;-48
2021/08/27 09:50:28;;;;;;;15.65;9.38;;;;;;;;;;4994805;28;20034;-53
2021/08/27 09:53:07;;;;;;;8.35;5.80;;;;;;;;;;4994461;28;20065;-52
2021/08/27 09:55:35;;;;;;;15.20;8.82;;;;;;;;;;4994453;28;20025;-48
2021/08/27 09:58:14;;;;;;;26.17;14.05;;;;;;;;;;4994167;28;20493;-50
2021/08/27 10:00:41;;;;;;;13.43;7.90;;;;;;;;;;4994402;28;20101;-49
2021/08/27 10:03:25;;;;;;;23.92;14.48;;;;;;;;;;4994321;28;20042;-47
2021/08/27 10:05:53;;;;;;;81.57;53.25;;;;;;;;;;4994822;28;20101;-48
2021/08/27 10:08:23;;;;;;;20.50;10.98;;;;;;;;;;4994122;28;20101;-48
2021/08/27 10:10:51;;;;;;;106.93;69.40;;;;;;;;;;4993987;28;20061;-51
2021/08/27 10:13:18;;;;;;;167.82;106.28;;;;;;;;;;4994140;28;20026;-51
2021/08/27 10:15:46;;;;;;;30.27;14.32;;;;;;;;;;4994090;28;20409;-51
2021/08/27 10:18:12;;;;;;;9.00;4.65;;;;;;;;;;4994319;28;20022;-48
2021/08/27 10:20:39;;;;;;;21.52;12.32;;;;;;;;;;4994147;28;20030;-51
2021/08/27 10:23:09;;;;;;;11.80;6.97;;;;;;;;;;4994027;28;20066;-51
2021/08/27 10:25:36;;;;;;;7.85;4.13;;;;;;;;;;4993897;28;20073;-50
2021/08/27 10:28:03;;;;;;;20.33;10.82;;;;;;;;;;4994274;28;20478;-49
2021/08/27 10:30:48;;;;;;;22.13;11.80;;;;;;;;;;4994261;28;20175;-50
2021/08/27 10:33:15;;;;;;;35.13;15.40;;;;;;;;;;4994135;28;20030;-51
2021/08/27 10:35:41;;;;;;;38.53;16.13;;;;;;;;;;4993908;28;20049;-50
2021/08/27 10:38:08;;;;;;;44.40;22.85;;;;;;;;;;4993721;28;20505;-51
2021/08/27 10:40:38;;;;;;;50.60;23.92;;;;;;;;;;4994567;28;20383;-50
2021/08/27 10:43:04;;;;;;;16.33;8.70;;;;;;;;;;4994270;28;20037;-51
2021/08/27 10:45:30;;;;;;;9.02;5.60;;;;;;;;;;4993412;28;20074;-51
2021/08/27 10:48:15;;;;;;;9.88;4.57;;;;;;;;;;4993405;28;20519;-52
2021/08/27 10:50:42;;;;;;;7.78;4.30;;;;;;;;;;4993250;28;20021;-51
2021/08/27 10:53:23;;;;;;;31.75;21.33;;;;;;;;;;4993316;28;20027;-49
2021/08/27 10:55:50;;;;;;;12.45;6.15;;;;;;;;;;4991724;28;20023;-49
2021/08/27 10:58:17;;;;;;;21.50;8.70;;;;;;;;;;4993474;28;20035;-50
2021/08/27 11:00:50;;;;;;;44.38;22.50;;;;;;;;;;4991588;28;20110;-50
2021/08/27 11:03:17;;;;;;;56.58;35.13;;;;;;;;;;4993208;28;20403;-51
2021/08/27 11:05:49;;;;;;;23.10;13.18;;;;;;;;;;4993306;28;20022;-53
2021/08/27 11:08:31;;;;;;;10.48;6.05;;;;;;;;;;4991193;28;20085;-48
2021/08/27 11:11:16;;;;;;;13.13;7.53;;;;;;;;;;4992544;28;20064;-47
2021/08/27 11:13:44;;;;;;;18.17;10.85;;;;;;;;;;4995999;28;20030;-52
2021/08/27 11:16:20;;;;;;;15.82;9.63;;;;;;;;;;4997078;28;20058;-51
2021/08/27 11:18:46;;;;;;;7.05;4.53;;;;;;;;;;4997337;28;20022;-53
2021/08/27 11:21:28;;;;;;;22.33;4.38;;;;;;;;;;4997383;28;20018;-49
2021/08/27 11:24:11;;;;;;;7.60;2.92;;;;;;;;;;4997085;28;20029;-48
2021/08/27 11:26:41;;;;;;;9.88;3.22;;;;;;;;;;4994496;28;20073;-49
2021/08/27 11:29:27;;;;;;;6.30;3.03;;;;;;;;;;4997007;28;20027;-47
2021/08/27 11:31:54;;;;;;;13.35;4.25;;;;;;;;;;4995555;28;20027;-47
2021/08/27 11:34:24;;;;;;;6.55;4.28;;;;;;;;;;4996987;28;20022;-47
2021/08/27 11:36:51;;;;;;;10.15;6.22;;;;;;;;;;4996694;28;20107;-48
2021/08/27 11:39:17;;;;;;;17.65;7.65;;;;;;;;;;4996913;28;20122;-47
2021/08/27 11:41:43;;;;;;;28.55;12.70;;;;;;;;;;4996527;28;20038;-47
2021/08/27 11:44:10;;;;;;;25.40;14.40;;;;;;;;;;4996731;28;20419;-46
2021/08/27 11:46:37;;;;;;;11.32;5.90;;;;;;;;;;4996695;28;20027;-47
2021/08/27 11:49:05;;;;;;;32.15;16.55;;;;;;;;;;4996486;28;20468;-48
2021/08/27 11:51:35;;;;;;;96.43;56.75;;;;;;;;;;4996717;28;20038;-48
2021/08/27 11:54:18;;;;;;;43.70;26.30;;;;;;;;;;4997026;28;20018;-48
2021/08/27 11:56:57;;;;;;;38.67;21.27;;;;;;;;;;4996986;28;20030;-47
2021/08/27 11:59:24;;;;;;;55.95;31.55;;;;;;;;;;4996966;28;20027;-48
2021/08/27 12:01:51;;;;;;;19.48;10.43;;;;;;;;;;4997045;28;20037;-47
2021/08/27 12:04:24;;;;;;;61.67;34.63;;;;;;;;;;4996720;28;20022;-47
2021/08/27 12:07:03;;;;;;;40.97;21.65;;;;;;;;;;4996791;28;20057;-47
2021/08/27 12:09:29;;;;;;;32.60;18.67;;;;;;;;;;4996552;28;20109;-50
2021/08/27 12:11:55;;;;;;;40.50;23.20;;;;;;;;;;4996743;28;20109;-55
2021/08/27 12:14:21;;;;;;;26.23;12.55;;;;;;;;;;4996481;28;20093;-53
2021/08/27 12:16:47;;;;;;;23.38;14.52;;;;;;;;;;4996688;28;20057;-56
2021/08/27 12:19:13;;;;;;;163.38;92.78;;;;;;;;;;4996426;28;20022;-49
2021/08/27 12:21:40;;;;;;;62.08;32.45;;;;;;;;;;4995706;28;20053;-51
2021/08/27 12:24:12;;;;;;;83.15;47.30;;;;;;;;;;4996449;28;20019;-52
2021/08/27 12:26:38;;;;;;;47.90;26.38;;;;;;;;;;4993600;28;20475;-52
2021/08/27 12:29:16;;;;;;;18.45;11.70;;;;;;;;;;4996367;28;20022;-52
2021/08/27 12:31:42;;;;;;;18.85;10.63;;;;;;;;;;4995710;28;20018;-53
2021/08/27 12:34:08;;;;;;;36.00;19.80;;;;;;;;;;4993565;28;20032;-53
2021/08/27 12:36:40;;;;;;;29.15;17.58;;;;;;;;;;4996429;28;20023;-52
2021/08/27 12:39:07;;;;;;;37.35;19.42;;;;;;;;;;4996362;28;20112;-47
2021/08/27 12:41:36;;;;;;;22.90;13.00;;;;;;;;;;4994646;28;20053;-52
2021/08/27 12:44:12;;;;;;;12.82;6.78;;;;;;;;;;4996193;28;20506;-56
2021/08/27 12:46:39;;;;;;;17.83;9.75;;;;;;;;;;4996307;28;20545;-51
2021/08/27 12:49:13;;;;;;;20.35;12.40;;;;;;;;;;4996126;28;20026;-52
2021/08/27 12:51:40;;;;;;;12.48;8.63;;;;;;;;;;4995942;28;20471;-53
2021/08/27 12:54:06;;;;;;;10.77;5.43;;;;;;;;;;4995784;28;20030;-55
2021/08/27 12:56:32;;;;;;;6.53;4.25;;;;;;;;;;4995142;28;20022;-53
2021/08/27 12:59:13;;;;;;;29.52;15.82;;;;;;;;;;4995427;28;20097;-47
2021/08/27 13:01:39;;;;;;;21.20;12.02;;;;;;;;;;4995579;28;20116;-54
2021/08/27 13:04:05;;;;;;;86.53;46.22;;;;;;;;;;4995182;28;20030;-48
2021/08/27 13:06:33;;;;;;;40.42;21.17;;;;;;;;;;4995050;28;20382;-50
2021/08/27 13:09:07;;;;;;;7.57;3.95;;;;;;;;;;4994998;28;20030;-52
2021/08/27 13:11:51;;;;;;;4.82;3.28;;;;;;;;;;4993315;28;20372;-47
2021/08/27 13:14:23;;;;;;;6.38;4.07;;;;;;;;;;4995787;28;20490;-52
2021/08/27 13:16:49;;;;;;;;;;;;;;;;;;4995832;28;20031;-45
2021/08/27 13:19:15;;;;;;;7.78;4.93;;;;;;;;;;4995319;28;19913;-46
2021/08/27 13:21:43;;;;;;;6.75;4.60;;;;;;;;;;4994966;28;20038;-52
2021/08/27 13:24:10;;;;;;;39.10;22.50;;;;;;;;;;4995269;28;20019;-48
2021/08/27 13:26:37;;;;;;;13.30;7.65;;;;;;;;;;4995357;28;20387;-46
2021/08/27 13:29:04;;;;;;;24.42;13.73;;;;;;;;;;4994721;28;20086;-50
2021/08/27 13:31:30;;;;;;;11.02;6.38;;;;;;;;;;4994487;28;20027;-46
2021/08/27 13:33:56;;;;;;;11.23;5.38;;;;;;;;;;4994026;28;20022;-49
2021/08/27 13:36:23;;;;;;;14.18;6.45;;;;;;;;;;4994726;28;20085;-47
2021/08/27 13:38:50;;;;;;;14.02;8.38;;;;;;;;;;4994977;28;20030;-45
2021/08/27 13:41:16;;;;;;;12.20;5.65;;;;;;;;;;4994830;28;20106;-47
2021/08/27 13:43:42;;;;;;;54.80;29.30;;;;;;;;;;4995058;28;20030;-47
2021/08/27 13:46:09;;;;;;;40.92;19.13;;;;;;;;;;4995036;28;20026;-50
2021/08/27 13:48:35;;;;;;;23.27;14.07;;;;;;;;;;4994969;28;20467;-47
2021/08/27 13:51:01;;;;;;;10.93;5.85;;;;;;;;;;4994744;28;20030;-48
2021/08/27 13:53:27;;;;;;;14.00;7.30;;;;;;;;;;4994797;28;20023;-48
2021/08/27 13:55:53;;;;;;;9.90;6.28;;;;;;;;;;4994660;28;20029;-49
2021/08/27 13:58:22;;;;;;;8.10;4.88;;;;;;;;;;4994843;28;20502;-52
2021/08/27 14:00:48;;;;;;;6.07;3.67;;;;;;;;;;4994336;28;20054;-52
2021/08/27 14:03:15;;;;;;;8.02;4.75;;;;;;;;;;4994025;28;20042;-48
2021/08/27 14:05:42;;;;;;;8.52;4.03;;;;;;;;;;4994065;28;20064;-48
2021/08/27 14:08:08;;;;;;;7.90;4.53;;;;;;;;;;4994201;28;20026;-52
2021/08/27 14:10:34;;;;;;;6.15;3.50;;;;;;;;;;4994547;28;20495;-48
2021/08/27 14:13:01;;;;;;;7.40;4.00;;;;;;;;;;4994255;28;20033;-52
2021/08/27 14:15:28;;;;;;;2.88;2.20;;;;;;;;;;4994417;28;20022;-49
2021/08/27 14:17:54;;;;;;;5.47;2.65;;;;;;;;;;4994016;28;20048;-48
2021/08/27 14:20:21;;;;;;;5.53;2.63;;;;;;;;;;4993642;28;20474;-50
2021/08/27 14:22:47;;;;;;;5.15;1.83;;;;;;;;;;4993848;28;20497;-48
2021/08/27 14:25:14;;;;;;;3.53;2.10;;;;;;;;;;4993992;28;20113;-53
2021/08/27 14:27:41;;;;;;;6.60;2.90;;;;;;;;;;4993782;28;20022;-50
2021/08/27 14:30:08;;;;;;;5.57;3.05;;;;;;;;;;4993780;28;20494;-52
2021/08/27 14:32:36;;;;;;;5.18;2.65;;;;;;;;;;4993599;28;20042;-49
2021/08/27 14:35:02;;;;;;;3.80;2.50;;;;;;;;;;4991061;28;20014;-52
2021/08/27 14:37:28;;;;;;;5.43;2.65;;;;;;;;;;4993777;28;20100;-52